Slave Lake Airport
CYZH : now visible

Airfield :











YOU CAN JOIN US ON...

 
LOGIN :

Register | Disclaimer

   EN    FR    IT 

 









Legend :    VFR   Marginal VFR   IFR   Intensive IFR   Very Intensive IFR
Visi :
Ceiling :
>= 8 km
>= 3000ft
5 to 8 km
1000 to 3000 ft
1500m to 5 km
500 to 1000 ft
800 to 1500m
200 to 500 ft
< 800m
< 200 ft
Symbols :   Thunderstorms  Fog  Heavy snow  Heavy precipitations  Wind > 20 kt






- Airport Elevation : 1912 ft
- IATA code : YZH


CYZH - Slave Lake

CURRENT METAR :
  • 221200Z AUTO 01012KT 9SM -SN OVC043 M07/M09 A3047 RMK SLP360

EXPIRED METARs :
  • 221128Z AUTO 36011KT 9SM -SN SCT013 OVC043 M07/M09 A3046 RMK SLP359
  • 221109Z AUTO 32005KT 220V020 7SM -SN OVC013 M08/M09 A3046 RMK SLP360
  • 221055Z AUTO 24004KT 210V270 3SM -SN OVC013 M08/M10 A3046 RMK SLP361
  • 221046Z AUTO 24006KT 2 1/4SM -SN OVC015 M08/M10 A3046 RMK SLP360
  • 221032Z AUTO 24010KT 2 1/4SM -SN BKN017 BKN025 OVC035 M08/M10 A3046 RMK SLP359
  • 221031Z AUTO 24010KT 2 1/2SM -SN BKN017 BKN025 OVC035 M08/M10 A3046 RMK VIS VRB 1 1/2-3 SLP359
  • 221022Z AUTO 26010KT 4SM -SN FEW013 SCT017 BKN025 OVC035 M08/M10 A3046 RMK SLP360
  • 221012Z AUTO 25009KT 3SM -SN SCT017 BKN027 OVC037 M08/M10 A3046 RMK SLP359
  • 220957Z AUTO 25010KT 1 1/4SM -SN BKN019 BKN025 OVC038 M08/M10 A3046 RMK SLP358
  • 220952Z AUTO 26010KT 2 1/4SM -SN BKN023 OVC039 M08/M10 A3046 RMK SLP358
  • 220935Z AUTO 26009KT 5SM -SN BKN021 OVC041 M08/M11 A3046 RMK SLP357

TAF TAF CYZH
Valid from the 22 at 13:00 until the 23 at 01:00 UTC


221238Z 2213/2301 01012KT P6SM -SN SCT020 OVC040
TEMPO 2215/2301 3SM -SHSN VV020
BECMG 2215/2217 29010KT RMK FCST BASED ON AUTO OBS. NXT FCST BY 221900Z
CZEG FIR / North America



MET'MAP, your aeronautical weather chart ! - Copyright ORBIFLY December 2007 - Disclaimer

ORBIFLY MET'MAP TEAM :

Programming & Development : Alexandra Zaïnal
Concept & original design : Baudouin d'Aumeries
Assistance for programming : Marc-Olivier Méhu
Technical & hardware support : Manuel Goepfert

Contact : metmap@orbifly.com




SOURCES & CREDITS :

   NOAA       Earth
Advisory